sensor_id;sensor_type;location;lat;lon;timestamp;temperature;humidity
23550;DHT22;11953;49.010;8.608;2023-06-14T00:00:58;24.80;75.10
23550;DHT22;11953;49.010;8.608;2023-06-14T00:03:45;24.80;75.10
23550;DHT22;11953;49.010;8.608;2023-06-14T00:06:33;24.80;75.10
23550;DHT22;11953;49.010;8.608;2023-06-14T00:09:20;24.80;75.10
23550;DHT22;11953;49.010;8.608;2023-06-14T00:12:08;24.80;75.10
23550;DHT22;11953;49.010;8.608;2023-06-14T00:14:55;24.80;75.10
23550;DHT22;11953;49.010;8.608;2023-06-14T00:17:42;24.80;75.20
23550;DHT22;11953;49.010;8.608;2023-06-14T00:20:33;24.70;75.10
23550;DHT22;11953;49.010;8.608;2023-06-14T00:23:20;24.70;75.20
23550;DHT22;11953;49.010;8.608;2023-06-14T00:26:06;24.70;75.20
23550;DHT22;11953;49.010;8.608;2023-06-14T00:28:55;24.70;75.20
23550;DHT22;11953;49.010;8.608;2023-06-14T00:40:56;24.60;75.50
23550;DHT22;11953;49.010;8.608;2023-06-14T00:43:42;24.50;75.60
23550;DHT22;11953;49.010;8.608;2023-06-14T00:46:30;24.60;75.70
23550;DHT22;11953;49.010;8.608;2023-06-14T00:49:17;24.70;75.60
23550;DHT22;11953;49.010;8.608;2023-06-14T00:52:05;24.70;75.60
23550;DHT22;11953;49.010;8.608;2023-06-14T00:54:52;24.70;75.50
23550;DHT22;11953;49.010;8.608;2023-06-14T00:57:39;24.70;75.50
23550;DHT22;11953;49.010;8.608;2023-06-14T01:10:20;24.60;75.80
23550;DHT22;11953;49.010;8.608;2023-06-14T01:13:14;24.60;75.80
23550;DHT22;11953;49.010;8.608;2023-06-14T01:16:03;24.60;75.70
23550;DHT22;11953;49.010;8.608;2023-06-14T01:18:52;24.70;75.60
23550;DHT22;11953;49.010;8.608;2023-06-14T01:21:41;24.70;75.60
23550;DHT22;11953;49.010;8.608;2023-06-14T01:24:29;24.70;76.10
23550;DHT22;11953;49.010;8.608;2023-06-14T01:27:20;24.80;75.50
23550;DHT22;11953;49.010;8.608;2023-06-14T01:30:09;24.70;75.50
23550;DHT22;11953;49.010;8.608;2023-06-14T01:32:58;24.70;75.50
23550;DHT22;11953;49.010;8.608;2023-06-14T01:35:50;24.70;75.50
23550;DHT22;11953;49.010;8.608;2023-06-14T01:38:37;24.70;75.50
23550;DHT22;11953;49.010;8.608;2023-06-14T01:41:27;24.70;75.50
23550;DHT22;11953;49.010;8.608;2023-06-14T01:44:16;24.70;75.50
23550;DHT22;11953;49.010;8.608;2023-06-14T01:50:52;24.70;75.60
23550;DHT22;11953;49.010;8.608;2023-06-14T01:53:39;24.60;75.50
23550;DHT22;11953;49.010;8.608;2023-06-14T01:56:30;24.60;75.50
23550;DHT22;11953;49.010;8.608;2023-06-14T01:59:17;24.60;75.60
23550;DHT22;11953;49.010;8.608;2023-06-14T02:02:04;24.60;75.60
23550;DHT22;11953;49.010;8.608;2023-06-14T02:04:51;24.60;75.50
23550;DHT22;11953;49.010;8.608;2023-06-14T02:07:37;24.60;75.60
23550;DHT22;11953;49.010;8.608;2023-06-14T02:10:24;24.60;75.60
23550;DHT22;11953;49.010;8.608;2023-06-14T02:13:14;24.60;75.60
23550;DHT22;11953;49.010;8.608;2023-06-14T02:16:01;24.60;75.60
23550;DHT22;11953;49.010;8.608;2023-06-14T02:18:47;24.60;75.60
23550;DHT22;11953;49.010;8.608;2023-06-14T02:21:35;24.60;75.70
23550;DHT22;11953;49.010;8.608;2023-06-14T02:24:23;24.60;75.70
23550;DHT22;11953;49.010;8.608;2023-06-14T02:27:10;24.50;75.70
23550;DHT22;11953;49.010;8.608;2023-06-14T02:29:59;24.50;75.80
23550;DHT22;11953;49.010;8.608;2023-06-14T02:32:46;24.50;75.80
23550;DHT22;11953;49.010;8.608;2023-06-14T02:35:34;24.50;75.80
23550;DHT22;11953;49.010;8.608;2023-06-14T02:38:21;24.50;75.80
23550;DHT22;11953;49.010;8.608;2023-06-14T02:41:07;24.50;75.80
23550;DHT22;11953;49.010;8.608;2023-06-14T02:43:54;24.50;75.90
23550;DHT22;11953;49.010;8.608;2023-06-14T02:46:43;24.40;75.80
23550;DHT22;11953;49.010;8.608;2023-06-14T02:49:30;24.50;75.90
23550;DHT22;11953;49.010;8.608;2023-06-14T02:52:16;24.40;75.90
23550;DHT22;11953;49.010;8.608;2023-06-14T02:55:04;24.40;75.90
23550;DHT22;11953;49.010;8.608;2023-06-14T02:57:51;24.40;76.00
23550;DHT22;11953;49.010;8.608;2023-06-14T03:00:39;24.40;76.00
23550;DHT22;11953;49.010;8.608;2023-06-14T03:03:28;24.40;76.00
23550;DHT22;11953;49.010;8.608;2023-06-14T03:06:15;24.30;76.00
23550;DHT22;11953;49.010;8.608;2023-06-14T03:09:04;24.30;75.90
23550;DHT22;11953;49.010;8.608;2023-06-14T03:11:54;24.30;76.00
23550;DHT22;11953;49.010;8.608;2023-06-14T03:14:41;24.30;76.00
23550;DHT22;11953;49.010;8.608;2023-06-14T03:17:31;24.30;76.00
23550;DHT22;11953;49.010;8.608;2023-06-14T03:20:22;24.30;76.00
23550;DHT22;11953;49.010;8.608;2023-06-14T03:23:12;24.30;76.10
23550;DHT22;11953;49.010;8.608;2023-06-14T03:26:00;24.30;76.10
23550;DHT22;11953;49.010;8.608;2023-06-14T03:28:47;24.30;76.20
23550;DHT22;11953;49.010;8.608;2023-06-14T03:31:36;24.30;76.20
23550;DHT22;11953;49.010;8.608;2023-06-14T03:34:24;24.30;76.20
23550;DHT22;11953;49.010;8.608;2023-06-14T03:37:13;24.30;76.20
23550;DHT22;11953;49.010;8.608;2023-06-14T03:39:59;24.30;76.20
23550;DHT22;11953;49.010;8.608;2023-06-14T03:42:49;24.30;76.20
23550;DHT22;11953;49.010;8.608;2023-06-14T03:45:37;24.20;76.20
23550;DHT22;11953;49.010;8.608;2023-06-14T03:48:24;24.20;76.20
23550;DHT22;11953;49.010;8.608;2023-06-14T03:51:11;24.20;76.30
23550;DHT22;11953;49.010;8.608;2023-06-14T03:53:59;24.20;76.30
23550;DHT22;11953;49.010;8.608;2023-06-14T03:57:08;24.20;76.30
23550;DHT22;11953;49.010;8.608;2023-06-14T03:59:56;24.20;76.30
23550;DHT22;11953;49.010;8.608;2023-06-14T04:02:44;24.20;76.40
23550;DHT22;11953;49.010;8.608;2023-06-14T04:05:31;24.10;76.30
23550;DHT22;11953;49.010;8.608;2023-06-14T04:08:18;24.20;76.40
23550;DHT22;11953;49.010;8.608;2023-06-14T04:11:10;24.10;76.30
23550;DHT22;11953;49.010;8.608;2023-06-14T04:42:41;23.20;72.80
23550;DHT22;11953;49.010;8.608;2023-06-14T04:45:32;23.00;73.00
23550;DHT22;11953;49.010;8.608;2023-06-14T04:48:19;22.90;72.70
23550;DHT22;11953;49.010;8.608;2023-06-14T04:51:07;22.90;72.80
23550;DHT22;11953;49.010;8.608;2023-06-14T04:53:54;22.80;73.00
23550;DHT22;11953;49.010;8.608;2023-06-14T04:56:43;22.70;73.40
23550;DHT22;11953;49.010;8.608;2023-06-14T04:59:32;22.60;73.50
23550;DHT22;11953;49.010;8.608;2023-06-14T05:02:22;22.60;73.80
23550;DHT22;11953;49.010;8.608;2023-06-14T05:05:09;22.40;73.90
23550;DHT22;11953;49.010;8.608;2023-06-14T05:07:56;22.30;74.20
23550;DHT22;11953;49.010;8.608;2023-06-14T05:10:43;22.20;74.30
23550;DHT22;11953;49.010;8.608;2023-06-14T05:13:30;22.20;74.50
23550;DHT22;11953;49.010;8.608;2023-06-14T05:16:19;22.20;74.90
23550;DHT22;11953;49.010;8.608;2023-06-14T05:19:09;22.20;75.20
23550;DHT22;11953;49.010;8.608;2023-06-14T05:21:56;22.20;75.40
23550;DHT22;11953;49.010;8.608;2023-06-14T05:24:43;22.10;75.60
23550;DHT22;11953;49.010;8.608;2023-06-14T05:27:31;22.10;75.90
23550;DHT22;11953;49.010;8.608;2023-06-14T05:30:20;22.10;76.00
23550;DHT22;11953;49.010;8.608;2023-06-14T05:33:08;22.10;76.20
23550;DHT22;11953;49.010;8.608;2023-06-14T05:35:55;22.00;76.10
23550;DHT22;11953;49.010;8.608;2023-06-14T05:38:41;22.00;75.90
23550;DHT22;11953;49.010;8.608;2023-06-14T05:41:28;22.00;76.00
23550;DHT22;11953;49.010;8.608;2023-06-14T05:44:15;22.00;76.20
23550;DHT22;11953;49.010;8.608;2023-06-14T05:47:02;22.00;76.40
23550;DHT22;11953;49.010;8.608;2023-06-14T05:49:50;21.90;76.60
23550;DHT22;11953;49.010;8.608;2023-06-14T05:52:37;21.90;77.00
23550;DHT22;11953;49.010;8.608;2023-06-14T05:55:24;21.90;77.30
23550;DHT22;11953;49.010;8.608;2023-06-14T05:58:11;21.90;77.50
23550;DHT22;11953;49.010;8.608;2023-06-14T06:00:58;21.90;77.70
23550;DHT22;11953;49.010;8.608;2023-06-14T06:03:46;22.00;77.80
23550;DHT22;11953;49.010;8.608;2023-06-14T06:06:34;22.00;77.50
23550;DHT22;11953;49.010;8.608;2023-06-14T06:09:21;22.00;77.50
23550;DHT22;11953;49.010;8.608;2023-06-14T06:12:08;22.00;77.90
23550;DHT22;11953;49.010;8.608;2023-06-14T06:14:55;22.00;77.90
23550;DHT22;11953;49.010;8.608;2023-06-14T06:17:42;22.00;78.80
23550;DHT22;11953;49.010;8.608;2023-06-14T06:20:40;22.00;78.40
23550;DHT22;11953;49.010;8.608;2023-06-14T06:23:28;22.10;78.30
23550;DHT22;11953;49.010;8.608;2023-06-14T06:26:14;22.10;79.00
23550;DHT22;11953;49.010;8.608;2023-06-14T06:29:01;22.10;78.30
23550;DHT22;11953;49.010;8.608;2023-06-14T06:31:48;22.10;78.20
23550;DHT22;11953;49.010;8.608;2023-06-14T06:34:35;22.10;77.90
23550;DHT22;11953;49.010;8.608;2023-06-14T06:37:22;22.10;78.10
23550;DHT22;11953;49.010;8.608;2023-06-14T06:40:11;22.20;78.70
23550;DHT22;11953;49.010;8.608;2023-06-14T06:42:58;22.10;80.10
23550;DHT22;11953;49.010;8.608;2023-06-14T06:45:45;22.20;80.40
23550;DHT22;11953;49.010;8.608;2023-06-14T06:48:32;22.30;80.90
23550;DHT22;11953;49.010;8.608;2023-06-14T06:51:48;22.30;80.30
23550;DHT22;11953;49.010;8.608;2023-06-14T06:54:45;22.40;80.20
23550;DHT22;11953;49.010;8.608;2023-06-14T06:57:33;22.40;79.60
23550;DHT22;11953;49.010;8.608;2023-06-14T07:00:20;22.50;79.30
23550;DHT22;11953;49.010;8.608;2023-06-14T07:03:07;22.50;79.00
23550;DHT22;11953;49.010;8.608;2023-06-14T07:05:55;22.60;78.50
23550;DHT22;11953;49.010;8.608;2023-06-14T07:08:42;22.50;78.40
23550;DHT22;11953;49.010;8.608;2023-06-14T07:11:29;22.60;78.40
23550;DHT22;11953;49.010;8.608;2023-06-14T07:14:17;22.60;78.20
23550;DHT22;11953;49.010;8.608;2023-06-14T07:17:04;22.60;78.10
23550;DHT22;11953;49.010;8.608;2023-06-14T07:19:53;22.70;78.20
23550;DHT22;11953;49.010;8.608;2023-06-14T07:22:41;22.70;78.00
23550;DHT22;11953;49.010;8.608;2023-06-14T07:25:28;22.70;78.00
23550;DHT22;11953;49.010;8.608;2023-06-14T07:28:16;22.70;78.30
23550;DHT22;11953;49.010;8.608;2023-06-14T07:31:04;22.80;78.50
23550;DHT22;11953;49.010;8.608;2023-06-14T07:33:51;22.80;79.10
23550;DHT22;11953;49.010;8.608;2023-06-14T07:36:38;22.90;79.10
23550;DHT22;11953;49.010;8.608;2023-06-14T07:39:25;22.90;78.70
23550;DHT22;11953;49.010;8.608;2023-06-14T07:42:12;22.90;78.40
23550;DHT22;11953;49.010;8.608;2023-06-14T07:44:59;22.90;78.70
23550;DHT22;11953;49.010;8.608;2023-06-14T07:47:47;22.90;78.20
23550;DHT22;11953;49.010;8.608;2023-06-14T07:50:34;23.00;78.30
23550;DHT22;11953;49.010;8.608;2023-06-14T07:53:21;23.00;78.40
23550;DHT22;11953;49.010;8.608;2023-06-14T07:56:08;23.00;78.20
23550;DHT22;11953;49.010;8.608;2023-06-14T07:58:55;23.00;78.20
23550;DHT22;11953;49.010;8.608;2023-06-14T08:01:42;23.00;78.10
23550;DHT22;11953;49.010;8.608;2023-06-14T08:13:47;23.10;78.10
23550;DHT22;11953;49.010;8.608;2023-06-14T08:16:34;23.30;77.50
23550;DHT22;11953;49.010;8.608;2023-06-14T08:19:21;23.30;77.30
23550;DHT22;11953;49.010;8.608;2023-06-14T08:22:09;23.40;77.00
23550;DHT22;11953;49.010;8.608;2023-06-14T08:24:57;23.40;77.10
23550;DHT22;11953;49.010;8.608;2023-06-14T08:27:43;23.50;77.00
23550;DHT22;11953;49.010;8.608;2023-06-14T08:30:32;23.50;76.90
23550;DHT22;11953;49.010;8.608;2023-06-14T08:33:19;23.60;77.20
23550;DHT22;11953;49.010;8.608;2023-06-14T08:36:06;23.60;76.80
23550;DHT22;11953;49.010;8.608;2023-06-14T08:38:52;23.50;76.40
23550;DHT22;11953;49.010;8.608;2023-06-14T08:41:39;23.60;76.60
23550;DHT22;11953;49.010;8.608;2023-06-14T08:44:26;23.60;76.70
23550;DHT22;11953;49.010;8.608;2023-06-14T08:47:15;23.60;76.60
23550;DHT22;11953;49.010;8.608;2023-06-14T08:50:07;23.60;76.90
23550;DHT22;11953;49.010;8.608;2023-06-14T08:53:14;23.60;76.40
23550;DHT22;11953;49.010;8.608;2023-06-14T08:56:05;23.60;76.40
23550;DHT22;11953;49.010;8.608;2023-06-14T08:58:54;23.60;76.70
23550;DHT22;11953;49.010;8.608;2023-06-14T09:10:05;23.70;76.90
23550;DHT22;11953;49.010;8.608;2023-06-14T09:12:53;23.80;76.70
23550;DHT22;11953;49.010;8.608;2023-06-14T09:15:41;23.80;76.60
23550;DHT22;11953;49.010;8.608;2023-06-14T09:18:35;23.90;76.50
23550;DHT22;11953;49.010;8.608;2023-06-14T09:21:21;23.90;76.50
23550;DHT22;11953;49.010;8.608;2023-06-14T09:24:13;23.90;76.40
23550;DHT22;11953;49.010;8.608;2023-06-14T09:27:02;24.00;76.40
23550;DHT22;11953;49.010;8.608;2023-06-14T09:29:51;24.00;76.30
23550;DHT22;11953;49.010;8.608;2023-06-14T09:32:39;24.10;76.40
23550;DHT22;11953;49.010;8.608;2023-06-14T09:35:26;24.20;76.20
23550;DHT22;11953;49.010;8.608;2023-06-14T09:38:15;24.20;75.80
23550;DHT22;11953;49.010;8.608;2023-06-14T09:41:03;24.30;75.70
23550;DHT22;11953;49.010;8.608;2023-06-14T09:43:52;24.30;75.70
23550;DHT22;11953;49.010;8.608;2023-06-14T09:46:43;24.40;75.80
23550;DHT22;11953;49.010;8.608;2023-06-14T09:49:30;24.40;75.70
23550;DHT22;11953;49.010;8.608;2023-06-14T09:52:20;24.40;75.60
23550;DHT22;11953;49.010;8.608;2023-06-14T09:55:12;24.30;75.40
23550;DHT22;11953;49.010;8.608;2023-06-14T09:58:04;24.40;75.40
23550;DHT22;11953;49.010;8.608;2023-06-14T10:00:54;24.40;75.30
23550;DHT22;11953;49.010;8.608;2023-06-14T10:03:42;24.40;75.00
23550;DHT22;11953;49.010;8.608;2023-06-14T10:06:37;24.30;74.50
23550;DHT22;11953;49.010;8.608;2023-06-14T10:09:25;24.30;75.00
23550;DHT22;11953;49.010;8.608;2023-06-14T10:12:16;24.30;76.10
23550;DHT22;11953;49.010;8.608;2023-06-14T10:15:09;24.30;76.20
23550;DHT22;11953;49.010;8.608;2023-06-14T10:18:02;24.20;76.00
23550;DHT22;11953;49.010;8.608;2023-06-14T10:20:55;24.20;75.00
23550;DHT22;11953;49.010;8.608;2023-06-14T10:23:45;24.20;74.50
23550;DHT22;11953;49.010;8.608;2023-06-14T10:26:33;24.20;73.80
23550;DHT22;11953;49.010;8.608;2023-06-14T10:29:20;24.20;73.80
23550;DHT22;11953;49.010;8.608;2023-06-14T10:32:07;24.10;74.20
23550;DHT22;11953;49.010;8.608;2023-06-14T10:34:57;24.10;74.00
23550;DHT22;11953;49.010;8.608;2023-06-14T10:37:46;24.10;74.30
23550;DHT22;11953;49.010;8.608;2023-06-14T10:40:33;24.10;74.50
23550;DHT22;11953;49.010;8.608;2023-06-14T10:43:24;24.10;74.40
23550;DHT22;11953;49.010;8.608;2023-06-14T10:46:17;24.00;74.00
23550;DHT22;11953;49.010;8.608;2023-06-14T10:49:07;24.00;73.60
23550;DHT22;11953;49.010;8.608;2023-06-14T10:51:57;24.00;73.20
23550;DHT22;11953;49.010;8.608;2023-06-14T10:55:06;24.00;73.10
23550;DHT22;11953;49.010;8.608;2023-06-14T10:57:55;23.90;73.10
23550;DHT22;11953;49.010;8.608;2023-06-14T11:00:46;23.90;72.90
23550;DHT22;11953;49.010;8.608;2023-06-14T11:03:51;23.90;72.80
23550;DHT22;11953;49.010;8.608;2023-06-14T11:06:48;23.80;72.50
23550;DHT22;11953;49.010;8.608;2023-06-14T11:10:06;23.90;72.90
23550;DHT22;11953;49.010;8.608;2023-06-14T11:12:56;23.90;72.90
23550;DHT22;11953;49.010;8.608;2023-06-14T11:15:44;23.90;72.10
23550;DHT22;11953;49.010;8.608;2023-06-14T11:18:31;23.90;71.70
23550;DHT22;11953;49.010;8.608;2023-06-14T11:21:18;23.80;72.30
23550;DHT22;11953;49.010;8.608;2023-06-14T11:24:10;23.80;72.20
23550;DHT22;11953;49.010;8.608;2023-06-14T11:27:00;23.80;72.00
23550;DHT22;11953;49.010;8.608;2023-06-14T11:29:50;23.80;72.00
23550;DHT22;11953;49.010;8.608;2023-06-14T11:32:37;23.80;72.40
23550;DHT22;11953;49.010;8.608;2023-06-14T11:35:25;23.80;72.60
23550;DHT22;11953;49.010;8.608;2023-06-14T11:38:12;23.70;72.70
23550;DHT22;11953;49.010;8.608;2023-06-14T11:40:59;23.80;73.00
23550;DHT22;11953;49.010;8.608;2023-06-14T11:43:52;23.70;72.60
23550;DHT22;11953;49.010;8.608;2023-06-14T11:46:39;23.80;72.90
23550;DHT22;11953;49.010;8.608;2023-06-14T11:49:26;23.80;72.50
23550;DHT22;11953;49.010;8.608;2023-06-14T11:52:13;23.80;72.30
23550;DHT22;11953;49.010;8.608;2023-06-14T11:55:01;23.70;71.80
23550;DHT22;11953;49.010;8.608;2023-06-14T11:57:50;23.60;72.10
23550;DHT22;11953;49.010;8.608;2023-06-14T12:00:39;23.60;71.90
23550;DHT22;11953;49.010;8.608;2023-06-14T12:03:27;23.60;71.90
23550;DHT22;11953;49.010;8.608;2023-06-14T12:06:14;23.60;72.30
23550;DHT22;11953;49.010;8.608;2023-06-14T12:09:03;23.60;72.30
23550;DHT22;11953;49.010;8.608;2023-06-14T12:12:00;23.50;72.20
23550;DHT22;11953;49.010;8.608;2023-06-14T12:14:47;23.50;72.00
23550;DHT22;11953;49.010;8.608;2023-06-14T12:17:36;23.50;72.30
23550;DHT22;11953;49.010;8.608;2023-06-14T12:20:29;23.50;72.40
23550;DHT22;11953;49.010;8.608;2023-06-14T12:23:16;23.50;71.80
23550;DHT22;11953;49.010;8.608;2023-06-14T12:26:03;23.50;71.80
23550;DHT22;11953;49.010;8.608;2023-06-14T12:28:51;23.50;71.80
23550;DHT22;11953;49.010;8.608;2023-06-14T12:31:39;23.50;71.70
23550;DHT22;11953;49.010;8.608;2023-06-14T15:57:29;25.20;72.10
23550;DHT22;11953;49.010;8.608;2023-06-14T16:00:17;25.30;72.60
23550;DHT22;11953;49.010;8.608;2023-06-14T16:03:04;25.20;72.50
23550;DHT22;11953;49.010;8.608;2023-06-14T16:05:51;25.20;72.60
23550;DHT22;11953;49.010;8.608;2023-06-14T16:08:37;25.30;72.90
23550;DHT22;11953;49.010;8.608;2023-06-14T16:11:26;25.30;73.00
23550;DHT22;11953;49.010;8.608;2023-06-14T16:14:14;25.30;72.60
23550;DHT22;11953;49.010;8.608;2023-06-14T16:17:01;25.30;72.70
23550;DHT22;11953;49.010;8.608;2023-06-14T16:19:48;25.30;72.20
23550;DHT22;11953;49.010;8.608;2023-06-14T16:22:36;25.30;73.00
23550;DHT22;11953;49.010;8.608;2023-06-14T16:25:23;25.30;71.30
